createdAt,value
2018-06-23T00:00:16.773Z,12.00
2018-06-23T00:02:44.132Z,12.00
2018-06-23T00:07:38.728Z,12.00
2018-06-23T00:10:06.092Z,12.00
2018-06-23T00:12:33.321Z,11.90
2018-06-23T00:15:00.589Z,11.90
2018-06-23T00:17:27.844Z,11.90
2018-06-23T00:19:55.077Z,11.80
2018-06-23T00:22:22.372Z,11.80
2018-06-23T00:24:49.688Z,11.80
2018-06-23T00:27:17.024Z,11.80
2018-06-23T00:29:44.264Z,11.70
2018-06-23T00:32:11.526Z,11.70
2018-06-23T00:37:06.112Z,11.70
2018-06-23T00:39:33.396Z,11.70
2018-06-23T00:42:00.633Z,11.70
2018-06-23T00:44:27.876Z,11.60
2018-06-23T00:46:55.120Z,11.60
2018-06-23T00:49:22.525Z,11.60
2018-06-23T00:51:49.784Z,11.60
2018-06-23T00:54:17.043Z,11.60
2018-06-23T00:56:44.324Z,11.60
2018-06-23T00:59:23.137Z,11.50
2018-06-23T01:01:50.417Z,11.50
2018-06-23T01:04:17.723Z,11.50
2018-06-23T01:06:44.964Z,11.50
2018-06-23T01:09:12.179Z,11.50
2018-06-23T01:11:39.396Z,11.40
2018-06-23T01:14:06.608Z,11.40
2018-06-23T01:16:33.936Z,11.40
2018-06-23T01:19:01.142Z,11.40
2018-06-23T01:21:28.388Z,11.40
2018-06-23T01:23:55.632Z,11.50
2018-06-23T01:26:22.873Z,11.50
2018-06-23T01:28:50.076Z,11.50
2018-06-23T01:31:17.325Z,11.50
2018-06-23T01:33:44.644Z,11.50
2018-06-23T01:36:11.912Z,11.50
2018-06-23T01:38:39.126Z,11.50
2018-06-23T01:41:06.372Z,11.60
2018-06-23T01:43:33.567Z,11.60
2018-06-23T01:46:00.796Z,11.60
2018-06-23T01:48:28.012Z,11.70
2018-06-23T01:53:22.462Z,11.70
2018-06-23T01:55:49.678Z,11.70
2018-06-23T01:58:16.916Z,11.80
2018-06-23T02:00:44.124Z,11.80
2018-06-23T02:03:11.336Z,11.80
2018-06-23T02:05:38.559Z,11.80
2018-06-23T02:08:05.936Z,11.80
2018-06-23T02:13:00.428Z,11.90
2018-06-23T02:15:33.301Z,11.90
2018-06-23T02:18:06.209Z,11.90
2018-06-23T02:20:39.156Z,11.80
2018-06-23T02:25:45.021Z,11.80
2018-06-23T02:28:18.121Z,11.80
2018-06-23T02:30:51.047Z,11.70
2018-06-23T02:33:24.081Z,11.70
2018-06-23T02:35:51.277Z,11.70
2018-06-23T02:38:18.504Z,11.70
2018-06-23T02:40:45.708Z,11.60
2018-06-23T02:43:12.947Z,11.60
2018-06-23T02:45:40.181Z,11.60
2018-06-23T02:50:34.655Z,11.50
2018-06-23T02:53:01.881Z,11.40
2018-06-23T02:55:29.172Z,11.40
2018-06-23T02:57:56.431Z,11.40
2018-06-23T03:00:23.644Z,11.30
2018-06-23T03:02:50.896Z,11.30
2018-06-23T03:05:18.124Z,11.20
2018-06-23T03:07:45.433Z,11.20
2018-06-23T03:10:12.660Z,11.20
2018-06-23T03:12:39.867Z,11.10
2018-06-23T03:15:07.072Z,11.10
2018-06-23T03:17:34.272Z,11.10
2018-06-23T03:20:01.536Z,11.00
2018-06-23T03:22:28.748Z,11.10
2018-06-23T03:24:55.973Z,11.10
2018-06-23T03:27:23.215Z,11.10
2018-06-23T03:29:50.426Z,11.10
2018-06-23T03:32:17.621Z,11.10
2018-06-23T03:34:44.824Z,11.10
2018-06-23T03:37:12.032Z,11.10
2018-06-23T03:42:06.485Z,11.00
2018-06-23T03:44:33.708Z,10.90
2018-06-23T03:47:00.944Z,10.90
2018-06-23T03:49:28.168Z,10.80
2018-06-23T03:51:55.381Z,10.80
2018-06-23T03:54:22.612Z,10.80
2018-06-23T03:56:49.912Z,10.80
2018-06-23T03:59:17.164Z,10.70
2018-06-23T04:01:44.420Z,10.70
2018-06-23T04:04:11.660Z,10.70
2018-06-23T04:09:07.995Z,10.70
2018-06-23T04:11:35.324Z,10.70
2018-06-23T04:14:02.472Z,10.80
2018-06-23T04:16:29.684Z,10.80
2018-06-23T04:18:57.701Z,10.90
2018-06-23T04:23:53.096Z,11.00
2018-06-23T04:26:20.320Z,11.10
2018-06-23T04:28:47.520Z,11.20
2018-06-23T04:31:14.740Z,11.20
2018-06-23T04:33:42.312Z,11.30
2018-06-23T04:36:09.712Z,11.40
2018-06-23T04:38:37.020Z,11.50
2018-06-23T04:41:04.276Z,11.60
2018-06-23T04:43:31.521Z,11.90
2018-06-23T04:45:58.724Z,12.10
2018-06-23T04:48:25.948Z,12.40
2018-06-23T04:50:53.172Z,12.60
2018-06-23T05:00:42.428Z,12.70
2018-06-23T05:03:09.620Z,12.70
2018-06-23T05:05:36.900Z,12.70
2018-06-23T05:08:04.095Z,12.60
2018-06-23T05:10:31.307Z,12.60
2018-06-23T05:12:58.500Z,12.60
2018-06-23T05:15:25.712Z,12.60
2018-06-23T05:17:52.924Z,12.60
2018-06-23T05:20:20.287Z,12.60
2018-06-23T05:25:14.727Z,12.70
2018-06-23T05:27:41.976Z,12.70
2018-06-23T05:30:09.200Z,12.80
2018-06-23T05:32:36.417Z,13.00
2018-06-23T05:35:03.654Z,13.10
2018-06-23T05:37:31.111Z,13.10
2018-06-23T05:39:58.889Z,13.10
2018-06-23T05:44:53.387Z,13.10
2018-06-23T05:47:20.801Z,13.20
2018-06-23T05:49:48.028Z,13.10
2018-06-23T05:52:15.248Z,13.20
2018-06-23T05:54:42.519Z,13.20
2018-06-23T05:57:09.784Z,13.10
2018-06-23T05:59:36.980Z,13.10
2018-06-23T06:02:04.232Z,13.10
2018-06-23T06:04:31.472Z,13.10
2018-06-23T06:06:58.707Z,13.00
2018-06-23T06:09:25.947Z,13.00
2018-06-23T06:11:53.156Z,12.90
2018-06-23T06:14:20.416Z,12.90
2018-06-23T06:17:25.100Z,12.90
2018-06-23T06:19:56.431Z,12.90
2018-06-23T06:22:25.013Z,12.90
2018-06-23T06:24:52.236Z,13.00
2018-06-23T06:27:19.452Z,13.00
2018-06-23T06:29:46.696Z,13.00
2018-06-23T06:34:41.192Z,13.00
2018-06-23T06:37:08.416Z,13.00
2018-06-23T06:39:35.664Z,13.00
2018-06-23T06:44:30.448Z,13.00
2018-06-23T06:46:57.856Z,13.00
2018-06-23T06:49:25.080Z,13.10
2018-06-23T06:51:52.819Z,13.10
2018-06-23T06:54:20.056Z,13.10
2018-06-23T06:56:47.740Z,13.10
2018-06-23T07:01:42.212Z,13.10
2018-06-23T07:04:09.424Z,13.10
2018-06-23T07:06:37.179Z,13.10
2018-06-23T07:09:07.832Z,13.10
2018-06-23T07:11:35.053Z,13.10
2018-06-23T07:14:02.380Z,13.20
2018-06-23T07:16:29.596Z,13.20
2018-06-23T07:18:56.860Z,13.30
2018-06-23T07:21:24.064Z,13.30
2018-06-23T07:23:51.375Z,13.40
2018-06-23T07:26:18.504Z,13.30
2018-06-23T07:28:45.771Z,13.30
2018-06-23T07:31:12.963Z,13.30
2018-06-23T07:33:40.180Z,13.30
2018-06-23T07:36:07.401Z,13.30
2018-06-23T07:38:34.785Z,13.30
2018-06-23T07:41:02.068Z,13.30
2018-06-23T07:43:29.276Z,13.30
2018-06-23T07:45:56.604Z,13.30
2018-06-23T07:48:23.824Z,13.30
2018-06-23T07:50:51.080Z,13.30
2018-06-23T07:53:18.364Z,13.30
2018-06-23T07:55:45.599Z,13.30
2018-06-23T08:00:40.280Z,13.40
2018-06-23T08:03:07.507Z,13.40
2018-06-23T08:08:02.076Z,13.50
2018-06-23T08:10:29.287Z,13.60
2018-06-23T08:12:56.492Z,13.60
2018-06-23T08:15:23.712Z,13.60
2018-06-23T08:17:51.196Z,13.70
2018-06-23T08:20:18.392Z,13.70
2018-06-23T08:22:45.607Z,13.80
2018-06-23T08:25:12.828Z,13.80
2018-06-23T08:27:40.057Z,13.90
2018-06-23T08:30:07.264Z,13.90
2018-06-23T08:32:34.541Z,14.00
2018-06-23T08:35:01.804Z,14.00
2018-06-23T08:37:29.032Z,14.10
2018-06-23T08:39:56.228Z,14.20
2018-06-23T08:42:23.440Z,14.20
2018-06-23T08:44:50.663Z,14.40
2018-06-23T08:47:17.897Z,14.40
2018-06-23T08:49:45.089Z,14.40
2018-06-23T08:52:12.336Z,14.50
2018-06-23T08:54:39.592Z,14.50
2018-06-23T08:57:06.800Z,14.50
2018-06-23T08:59:34.000Z,14.50
2018-06-23T09:04:28.512Z,14.60
2018-06-23T09:06:55.790Z,14.70
2018-06-23T09:09:23.119Z,14.70
2018-06-23T09:11:50.324Z,14.70
2018-06-23T09:14:17.532Z,14.80
2018-06-23T09:16:44.789Z,14.80
2018-06-23T09:19:11.995Z,14.80
2018-06-23T09:21:39.187Z,14.80
2018-06-23T09:26:33.636Z,14.90
2018-06-23T09:29:00.862Z,14.90
2018-06-23T09:31:28.060Z,15.00
2018-06-23T09:33:55.312Z,15.00
2018-06-23T09:36:22.553Z,15.10
2018-06-23T09:38:49.847Z,15.10
2018-06-23T09:43:44.302Z,15.20
2018-06-23T09:46:11.545Z,15.30
2018-06-23T09:48:38.832Z,15.30
2018-06-23T09:51:06.042Z,15.30
2018-06-23T09:53:33.264Z,15.30
2018-06-23T09:56:00.513Z,15.30
2018-06-23T09:58:27.764Z,15.40
2018-06-23T10:03:22.192Z,15.50
2018-06-23T10:08:16.659Z,15.60
2018-06-23T10:10:43.885Z,15.60
2018-06-23T10:15:38.321Z,15.70
2018-06-23T10:18:05.518Z,15.70
2018-06-23T10:20:32.735Z,15.70
2018-06-23T10:22:59.962Z,15.70
2018-06-23T10:25:27.188Z,15.70
2018-06-23T10:27:54.396Z,15.70
2018-06-23T10:30:21.603Z,15.70
2018-06-23T10:32:48.840Z,15.60
2018-06-23T10:35:16.048Z,15.60
2018-06-23T10:37:43.271Z,15.50
2018-06-23T10:40:10.721Z,15.50
2018-06-23T10:42:37.970Z,15.40
2018-06-23T10:45:05.184Z,15.40
2018-06-23T10:52:27.628Z,15.50
2018-06-23T10:54:54.819Z,15.70
2018-06-23T10:57:22.045Z,15.70
2018-06-23T10:59:49.301Z,15.80
2018-06-23T11:02:16.728Z,15.80
2018-06-23T11:04:44.090Z,15.90
2018-06-23T11:07:11.348Z,15.90
2018-06-23T11:09:38.768Z,16.00
2018-06-23T11:12:05.988Z,16.00
2018-06-23T11:14:33.244Z,15.90
2018-06-23T11:17:00.537Z,16.00
2018-06-23T11:19:27.760Z,16.00
2018-06-23T11:21:55.025Z,16.00
2018-06-23T11:24:22.283Z,16.00
2018-06-23T11:26:49.579Z,16.00
2018-06-23T11:29:16.839Z,16.00
2018-06-23T11:31:44.092Z,16.00
2018-06-23T11:34:11.319Z,16.00
2018-06-23T11:36:38.675Z,16.00
2018-06-23T11:39:07.425Z,16.10
2018-06-23T11:41:34.665Z,16.10
2018-06-23T11:44:02.109Z,16.10
2018-06-23T11:46:29.374Z,16.10
2018-06-23T11:48:56.644Z,16.20
2018-06-23T11:53:51.197Z,16.20
2018-06-23T11:58:46.598Z,16.30
2018-06-23T12:01:13.915Z,16.30
2018-06-23T12:03:41.119Z,16.40
2018-06-23T12:06:08.413Z,16.40
2018-06-23T12:08:35.632Z,16.40
2018-06-23T12:11:02.883Z,16.40
2018-06-23T12:13:30.127Z,16.40
2018-06-23T12:15:57.468Z,16.40
2018-06-23T12:18:24.684Z,16.30
2018-06-23T12:20:52.029Z,16.30
2018-06-23T12:25:46.548Z,16.40
2018-06-23T12:28:13.960Z,16.40
2018-06-23T12:30:41.335Z,16.40
2018-06-23T12:33:08.584Z,16.50
2018-06-23T12:35:35.828Z,16.50
2018-06-23T12:38:03.088Z,16.50
2018-06-23T12:40:30.404Z,16.50
2018-06-23T12:42:57.631Z,16.50
2018-06-23T12:45:24.868Z,16.60
2018-06-23T12:47:52.091Z,16.70
2018-06-23T12:50:19.437Z,16.70
2018-06-23T12:52:46.711Z,16.80
2018-06-23T12:55:14.023Z,16.90
2018-06-23T12:57:41.244Z,17.00
2018-06-23T13:00:08.541Z,17.00
2018-06-23T13:02:35.888Z,17.10
2018-06-23T13:05:03.481Z,17.10
2018-06-23T13:07:30.793Z,17.00
2018-06-23T13:09:58.051Z,17.00
2018-06-23T13:12:25.302Z,17.00
2018-06-23T13:14:52.541Z,17.00
2018-06-23T13:17:19.824Z,16.90
2018-06-23T13:19:47.054Z,16.90
2018-06-23T13:22:14.375Z,16.90
2018-06-23T13:24:41.615Z,16.90
2018-06-23T13:27:08.884Z,16.90
2018-06-23T13:29:36.179Z,16.90
2018-06-23T13:34:30.740Z,16.90
2018-06-23T13:36:57.950Z,17.00
2018-06-23T13:39:25.309Z,17.10
2018-06-23T13:41:52.520Z,17.20
2018-06-23T13:44:19.843Z,17.20
2018-06-23T13:46:48.117Z,17.20
2018-06-23T13:51:42.649Z,17.30
2018-06-23T13:54:09.947Z,17.40
2018-06-23T13:56:37.235Z,17.50
2018-06-23T13:59:04.569Z,17.60
2018-06-23T14:01:31.824Z,17.50
2018-06-23T14:03:59.146Z,17.50
2018-06-23T14:06:26.472Z,17.50
2018-06-23T14:08:53.742Z,17.50
2018-06-23T14:11:21.205Z,17.50
2018-06-23T14:13:48.573Z,17.50
2018-06-23T14:16:15.884Z,17.50
2018-06-23T14:18:43.219Z,17.40
2018-06-23T14:23:37.728Z,17.40
2018-06-23T14:26:04.992Z,17.40
2018-06-23T14:28:32.271Z,17.40
2018-06-23T14:30:59.484Z,17.40
2018-06-23T14:33:26.773Z,17.40
2018-06-23T14:35:53.996Z,17.40
2018-06-23T14:38:21.223Z,17.40
2018-06-23T14:40:48.608Z,17.40
2018-06-23T14:43:15.845Z,17.40
2018-06-23T14:45:43.112Z,17.30
2018-06-23T14:48:10.351Z,17.30
2018-06-23T14:50:37.609Z,17.30
2018-06-23T14:53:04.868Z,17.30
2018-06-23T14:55:32.193Z,17.20
2018-06-23T14:57:59.448Z,17.20
2018-06-23T15:00:26.756Z,17.30
2018-06-23T15:02:53.975Z,17.30
2018-06-23T15:05:21.282Z,17.20
2018-06-23T15:07:48.519Z,17.30
2018-06-23T15:11:27.932Z,17.30
2018-06-23T15:13:55.184Z,17.30
2018-06-23T15:16:22.395Z,17.30
2018-06-23T15:18:49.632Z,17.40
2018-06-23T15:21:16.901Z,17.30
2018-06-23T15:23:44.138Z,17.30
2018-06-23T15:26:11.376Z,17.30
2018-06-23T15:31:05.835Z,17.20
2018-06-23T15:33:33.122Z,17.20
2018-06-23T15:36:00.333Z,17.20
2018-06-23T15:38:27.557Z,17.10
2018-06-23T15:40:54.806Z,17.10
2018-06-23T15:43:22.076Z,17.10
2018-06-23T15:45:49.344Z,17.00
2018-06-23T15:48:16.644Z,17.00
2018-06-23T15:50:43.969Z,17.00
2018-06-23T15:53:11.193Z,17.00
2018-06-23T15:55:38.688Z,17.00
2018-06-23T15:58:05.912Z,17.00
2018-06-23T16:00:33.139Z,16.90
2018-06-23T16:03:00.395Z,16.90
2018-06-23T16:05:27.627Z,16.90
2018-06-23T16:10:24.824Z,16.80
2018-06-23T16:15:20.073Z,16.80
2018-06-23T16:17:47.408Z,16.70
2018-06-23T16:20:14.924Z,16.70
2018-06-23T16:22:42.469Z,16.70
2018-06-23T16:25:09.732Z,16.60
2018-06-23T16:27:36.940Z,16.60
2018-06-23T16:30:04.528Z,16.60
2018-06-23T16:32:31.739Z,16.60
2018-06-23T16:42:21.651Z,16.70
2018-06-23T16:44:48.925Z,16.80
2018-06-23T16:47:16.200Z,16.80
2018-06-23T16:49:43.439Z,16.90
2018-06-23T16:52:10.914Z,16.90
2018-06-23T16:57:05.476Z,17.00
2018-06-23T16:59:32.756Z,17.00
2018-06-23T17:02:00.026Z,17.00
2018-06-23T17:04:27.318Z,17.00
2018-06-23T17:06:54.479Z,17.00
2018-06-23T17:09:21.720Z,17.00
2018-06-23T17:11:49.000Z,17.00
2018-06-23T17:14:16.316Z,17.00
2018-06-23T17:16:43.512Z,16.90
2018-06-23T17:19:10.760Z,17.00
2018-06-23T17:21:37.985Z,17.00
2018-06-23T17:24:05.249Z,17.00
2018-06-23T17:26:32.488Z,17.00
2018-06-23T17:28:59.741Z,16.90
2018-06-23T17:31:26.985Z,16.90
2018-06-23T17:33:54.217Z,16.90
2018-06-23T17:36:21.407Z,16.80
2018-06-23T17:38:48.644Z,16.90
2018-06-23T17:41:16.039Z,16.80
2018-06-23T17:43:43.292Z,16.90
2018-06-23T17:46:10.539Z,16.80
2018-06-23T17:48:37.771Z,16.90
2018-06-23T17:51:05.351Z,16.90
2018-06-23T17:53:32.564Z,16.80
2018-06-23T17:55:59.764Z,16.80
2018-06-23T17:58:27.004Z,16.80
2018-06-23T18:00:54.296Z,16.80
2018-06-23T18:03:21.483Z,16.80
2018-06-23T18:05:48.680Z,16.80
2018-06-23T18:08:15.932Z,16.80
2018-06-23T18:10:43.187Z,16.70
2018-06-23T18:13:10.407Z,16.70
2018-06-23T18:15:37.816Z,16.70
2018-06-23T18:18:05.064Z,16.60
2018-06-23T18:20:32.271Z,16.60
2018-06-23T18:22:59.510Z,16.50
2018-06-23T18:25:26.731Z,16.50
2018-06-23T18:27:53.961Z,16.50
2018-06-23T18:30:21.156Z,16.50
2018-06-23T18:32:48.393Z,16.40
2018-06-23T18:35:15.636Z,16.40
2018-06-23T18:40:10.088Z,16.40
2018-06-23T18:42:37.843Z,16.40
2018-06-23T18:47:32.319Z,16.30
2018-06-23T18:49:59.691Z,16.30
2018-06-23T18:52:26.903Z,16.30
2018-06-23T18:54:54.095Z,16.30
2018-06-23T18:57:21.342Z,16.30
2018-06-23T19:02:15.804Z,16.30
2018-06-23T19:04:43.016Z,16.30
2018-06-23T19:07:10.348Z,16.20
2018-06-23T19:09:37.536Z,16.20
2018-06-23T19:12:04.871Z,16.20
2018-06-23T19:14:32.085Z,16.20
2018-06-23T19:16:59.315Z,16.20
2018-06-23T19:19:26.524Z,16.20
2018-06-23T19:21:53.757Z,16.10
2018-06-23T19:24:20.996Z,16.10
2018-06-23T19:26:48.196Z,16.10
2018-06-23T19:29:15.441Z,16.10
2018-06-23T19:31:42.656Z,16.00
2018-06-23T19:36:37.175Z,16.00
2018-06-23T19:39:07.088Z,15.90
2018-06-23T19:44:01.574Z,15.80
2018-06-23T19:46:28.776Z,15.80
2018-06-23T19:48:55.993Z,15.70
2018-06-23T19:51:23.244Z,15.70
2018-06-23T19:56:17.748Z,15.50
2018-06-23T19:58:44.960Z,15.50
2018-06-23T20:01:12.192Z,15.50
2018-06-23T20:03:39.405Z,15.50
2018-06-23T20:06:07.060Z,15.50
2018-06-23T20:08:34.256Z,15.40
2018-06-23T20:11:01.467Z,15.40
2018-06-23T20:13:28.824Z,15.40
2018-06-23T20:15:56.322Z,15.40
2018-06-23T20:20:50.963Z,15.30
2018-06-23T20:23:18.168Z,15.20
2018-06-23T20:25:46.313Z,15.20
2018-06-23T20:28:13.512Z,15.10
2018-06-23T20:30:40.720Z,15.10
2018-06-23T20:33:07.928Z,15.00
2018-06-23T20:35:35.156Z,14.90
2018-06-23T20:38:02.460Z,14.90
2018-06-23T20:40:29.663Z,14.90
2018-06-23T20:42:56.908Z,14.80
2018-06-23T20:45:24.104Z,14.70
2018-06-23T20:47:51.340Z,14.70
2018-06-23T20:50:18.603Z,14.60
2018-06-23T20:52:45.840Z,14.60
2018-06-23T20:55:13.066Z,14.50
2018-06-23T21:02:34.817Z,14.40
2018-06-23T21:05:02.068Z,14.40
2018-06-23T21:07:29.399Z,14.30
2018-06-23T21:09:56.512Z,14.20
2018-06-23T21:12:23.716Z,14.20
2018-06-23T21:14:50.956Z,14.20
2018-06-23T21:17:18.204Z,14.10
2018-06-23T21:19:45.424Z,14.00
2018-06-23T21:22:12.652Z,14.00
2018-06-23T21:24:40.081Z,14.00
2018-06-23T21:29:34.864Z,13.90
2018-06-23T21:32:02.108Z,13.80
2018-06-23T21:34:29.328Z,13.80
2018-06-23T21:36:56.524Z,13.70
2018-06-23T21:39:23.755Z,13.70
2018-06-23T21:41:50.964Z,13.60
2018-06-23T21:44:18.304Z,13.60
2018-06-23T21:46:45.548Z,13.50
2018-06-23T21:49:12.772Z,13.50
2018-06-23T21:51:40.036Z,13.50
2018-06-23T21:54:07.309Z,13.50
2018-06-23T21:56:34.652Z,13.50
2018-06-23T21:59:01.952Z,13.50
2018-06-23T22:01:29.176Z,13.40
2018-06-23T22:03:56.431Z,13.40
2018-06-23T22:06:23.743Z,13.40
2018-06-23T22:08:50.948Z,13.30
2018-06-23T22:11:19.199Z,13.20
2018-06-23T22:13:46.432Z,13.10
2018-06-23T22:16:13.716Z,13.10
2018-06-23T22:18:40.944Z,13.10
2018-06-23T22:21:08.176Z,13.00
2018-06-23T22:23:35.399Z,12.90
2018-06-23T22:26:02.692Z,12.90
2018-06-23T22:28:29.947Z,12.90
2018-06-23T22:30:57.203Z,12.80
2018-06-23T22:33:24.432Z,12.70
2018-06-23T22:35:51.663Z,12.70
2018-06-23T22:38:18.936Z,12.70
2018-06-23T22:40:46.138Z,12.70
2018-06-23T22:43:13.391Z,12.80
2018-06-23T22:45:40.708Z,12.70
2018-06-23T22:48:07.924Z,12.80
2018-06-23T22:53:02.425Z,12.80
2018-06-23T22:55:29.647Z,12.80
2018-06-23T22:57:56.871Z,12.80
2018-06-23T23:00:25.109Z,12.80
2018-06-23T23:02:52.328Z,12.80
2018-06-23T23:05:19.575Z,12.80
2018-06-23T23:07:46.892Z,12.80
2018-06-23T23:10:14.204Z,12.80
2018-06-23T23:12:41.596Z,12.70
2018-06-23T23:15:08.793Z,12.70
2018-06-23T23:17:36.032Z,12.70
2018-06-23T23:20:03.741Z,12.70
2018-06-23T23:22:31.114Z,12.70
2018-06-23T23:24:58.364Z,12.70
2018-06-23T23:27:25.688Z,12.60
2018-06-23T23:29:52.956Z,12.60
2018-06-23T23:32:20.188Z,12.60
2018-06-23T23:34:47.623Z,12.60
2018-06-23T23:37:14.928Z,12.60
2018-06-23T23:39:42.172Z,12.60
2018-06-23T23:42:09.408Z,12.50
2018-06-23T23:44:36.765Z,12.50
2018-06-23T23:47:04.000Z,12.50
2018-06-23T23:49:31.247Z,12.40
2018-06-23T23:51:58.524Z,12.40
2018-06-23T23:54:25.736Z,12.40
2018-06-23T23:56:52.987Z,12.30
2018-06-23T23:59:20.190Z,12.30
